Time;durP1;ratioP1;P1;durP2;ratioP2;P2;SDS_P1;SDS_P2;PMS_P1;PMS_P2;Temp;Humidity;BMP_temperature;BMP_pressure;BME280_temperature;BME280_humidity;BME280_pressure;Samples;Min_cycle;Max_cycle;Signal;HPM_P1;HPM_P2
2021/10/01 00:01:29;;;;;;;2.07;1.87;;;13.30;99.90;;;;;;6007153;23;20596;-67
2021/10/01 00:03:55;;;;;;;2.67;1.90;;;13.30;99.90;;;;;;6032125;23;20555;-67
2021/10/01 00:06:21;;;;;;;3.77;2.07;;;13.30;99.90;;;;;;6029744;23;20613;-66
2021/10/01 00:08:48;;;;;;;4.00;2.17;;;13.20;99.90;;;;;;6029486;23;20164;-69
2021/10/01 00:11:16;;;;;;;3.67;1.90;;;13.20;99.90;;;;;;6032589;23;20215;-66
2021/10/01 00:13:45;;;;;;;2.60;1.90;;;13.20;99.90;;;;;;6028757;23;20564;-68
2021/10/01 00:16:11;;;;;;;5.63;2.00;;;13.10;99.90;;;;;;6030861;23;21223;-67
2021/10/01 00:18:45;;;;;;;3.60;1.80;;;13.10;99.90;;;;;;6030893;23;20672;-65
2021/10/01 00:21:10;;;;;;;2.33;1.97;;;13.20;99.90;;;;;;6029926;23;20577;-68
2021/10/01 00:23:36;;;;;;;2.90;2.00;;;13.20;99.90;;;;;;6035473;23;20649;-66
2021/10/01 00:26:09;;;;;;;4.37;1.87;;;13.20;99.90;;;;;;6049269;23;20208;-67
2021/10/01 00:28:35;;;;;;;2.83;2.07;;;13.30;99.90;;;;;;6042765;23;20560;-67
2021/10/01 00:31:02;;;;;;;2.23;2.00;;;13.30;99.90;;;;;;6007841;23;20630;-68
2021/10/01 00:33:28;;;;;;;4.60;1.93;;;13.20;99.90;;;;;;6032783;23;20157;-67
2021/10/01 00:35:54;;;;;;;3.20;2.00;;;13.20;99.90;;;;;;6030464;23;20700;-70
2021/10/01 00:38:19;;;;;;;2.20;1.73;;;13.20;99.90;;;;;;6030269;23;20265;-67
2021/10/01 00:40:47;;;;;;;3.17;2.00;;;13.30;99.90;;;;;;6005852;23;20606;-65
2021/10/01 00:43:19;;;;;;;2.70;2.13;;;13.20;99.90;;;;;;6031311;23;20257;-67
2021/10/01 00:45:44;;;;;;;4.40;2.23;;;13.20;99.90;;;;;;6030837;23;20628;-67
2021/10/01 00:48:15;;;;;;;3.13;2.77;;;13.20;99.90;;;;;;6031819;23;20538;-67
2021/10/01 00:50:45;;;;;;;2.23;1.70;;;13.20;99.90;;;;;;6031497;23;20495;-68
2021/10/01 00:53:11;;;;;;;2.00;1.80;;;13.20;99.90;;;;;;6031716;23;20541;-68
2021/10/01 00:55:39;;;;;;;2.00;1.60;;;13.30;99.90;;;;;;6029485;23;20583;-68
2021/10/01 00:58:04;;;;;;;3.37;1.80;;;13.30;99.90;;;;;;6025045;23;20878;-66
2021/10/01 01:00:33;;;;;;;4.07;1.90;;;13.40;99.90;;;;;;6030318;23;20596;-67
2021/10/01 01:03:04;;;;;;;2.37;2.20;;;13.30;99.90;;;;;;6031771;23;20161;-67
2021/10/01 01:05:57;;;;;;;1.50;1.40;;;13.20;99.90;;;;;;6030932;23;20950;-70
2021/10/01 01:08:29;;;;;;;3.03;1.73;;;13.30;99.90;;;;;;6028956;23;20493;-67
2021/10/01 01:11:09;;;;;;;1.97;1.87;;;13.30;99.90;;;;;;6029462;23;20568;-68
2021/10/01 01:14:02;;;;;;;2.90;2.00;;;13.40;99.90;;;;;;6030757;23;20497;-68
2021/10/01 01:16:33;;;;;;;2.27;1.90;;;13.30;99.90;;;;;;6030325;23;20588;-66
2021/10/01 01:19:06;;;;;;;4.13;2.30;;;13.30;99.90;;;;;;6030958;23;20499;-67
2021/10/01 01:22:20;;;;;;;4.00;2.93;;;13.30;99.90;;;;;;6030986;23;20533;-67
2021/10/01 01:25:14;;;;;;;2.00;1.70;;;13.20;99.90;;;;;;5995037;23;20572;-65
2021/10/01 01:28:10;;;;;;;2.03;1.63;;;13.10;99.90;;;;;;6015770;23;21142;-68
2021/10/01 01:30:46;;;;;;;3.97;2.10;;;13.20;99.90;;;;;;6031015;23;20557;-67
2021/10/01 01:33:23;;;;;;;2.40;1.90;;;13.20;99.90;;;;;;6032243;23;20991;-68
2021/10/01 01:35:52;;;;;;;3.43;1.87;;;13.30;99.90;;;;;;6030019;23;20595;-69
2021/10/01 01:38:28;;;;;;;2.30;1.97;;;13.20;99.90;;;;;;6031157;23;20525;-68
2021/10/01 01:40:56;;;;;;;1.97;1.87;;;13.30;99.90;;;;;;6030694;23;20592;-67
2021/10/01 01:43:27;;;;;;;5.10;3.97;;;13.30;99.90;;;;;;6032008;23;20951;-68
2021/10/01 01:45:53;;;;;;;2.00;1.70;;;13.30;99.90;;;;;;6030878;23;20671;-68
2021/10/01 01:48:27;;;;;;;2.30;2.10;;;13.40;99.90;;;;;;6030035;23;20533;-66
2021/10/01 01:50:56;;;;;;;3.60;2.30;;;13.30;99.90;;;;;;6032539;23;20616;-67
2021/10/01 01:53:26;;;;;;;3.90;1.73;;;13.30;99.90;;;;;;6028233;23;20564;-67
2021/10/01 01:58:40;;;;;;;2.70;1.77;;;13.10;99.90;;;;;;6032537;23;20666;-66
2021/10/01 02:01:07;;;;;;;1.93;1.63;;;13.20;99.90;;;;;;6032533;23;20637;-67
2021/10/01 02:03:34;;;;;;;2.30;1.50;;;13.10;99.90;;;;;;6033370;23;20778;-67
2021/10/01 02:06:04;;;;;;;2.00;1.50;;;13.00;99.90;;;;;;6031583;23;20675;-68
2021/10/01 02:08:38;;;;;;;2.40;1.70;;;13.10;99.90;;;;;;6031518;23;20529;-68
2021/10/01 02:11:06;;;;;;;3.00;1.87;;;13.10;99.90;;;;;;6030457;23;21018;-67
2021/10/01 02:13:38;;;;;;;1.80;1.70;;;13.10;99.90;;;;;;6032768;23;20644;-66
2021/10/01 02:16:05;;;;;;;2.93;2.20;;;13.10;99.90;;;;;;6032913;23;20631;-67
2021/10/01 02:18:34;;;;;;;2.43;1.87;;;13.20;99.90;;;;;;6031244;23;20545;-67
2021/10/01 02:21:02;;;;;;;1.60;1.50;;;13.20;99.90;;;;;;6034040;23;20599;-67
2021/10/01 02:23:28;;;;;;;2.80;1.60;;;13.20;99.90;;;;;;6032220;23;20898;-67
2021/10/01 02:28:51;;;;;;;2.00;1.57;;;13.30;99.90;;;;;;6032757;23;21126;-66
2021/10/01 02:31:23;;;;;;;2.37;1.67;;;13.30;99.90;;;;;;6032979;23;20631;-68
2021/10/01 02:33:51;;;;;;;2.87;1.50;;;13.30;99.90;;;;;;6033272;23;20509;-67
2021/10/01 02:36:17;;;;;;;1.77;1.40;;;13.30;99.90;;;;;;6032022;23;20588;-67
2021/10/01 02:38:43;;;;;;;3.50;1.93;;;13.30;99.90;;;;;;6032533;23;20951;-68
2021/10/01 02:41:09;;;;;;;2.50;2.00;;;13.40;99.90;;;;;;6031695;23;21116;-68
2021/10/01 02:43:37;;;;;;;2.77;1.73;;;13.40;99.90;;;;;;6007524;23;20557;-68
2021/10/01 02:46:03;;;;;;;2.50;1.80;;;13.30;99.90;;;;;;6006205;23;20212;-68
2021/10/01 02:48:28;;;;;;;2.43;1.60;;;13.30;99.90;;;;;;6031585;23;21163;-68
2021/10/01 02:51:02;;;;;;;6.87;2.17;;;13.40;99.90;;;;;;6033079;23;20176;-68
2021/10/01 02:53:55;;;;;;;5.00;1.90;;;13.30;99.90;;;;;;6031847;23;20228;-68
2021/10/01 02:56:27;;;;;;;2.10;1.80;;;13.40;99.90;;;;;;6029769;23;20600;-68
2021/10/01 02:59:02;;;;;;;2.43;1.70;;;13.40;99.90;;;;;;6031864;23;21083;-68
2021/10/01 03:01:29;;;;;;;1.93;1.60;;;13.30;99.90;;;;;;6032669;23;20922;-71
2021/10/01 03:04:05;;;;;;;2.73;1.87;;;13.30;99.90;;;;;;6040344;23;20548;-68
2021/10/01 03:06:34;;;;;;;4.70;1.83;;;13.40;99.90;;;;;;6040394;23;20723;-68
2021/10/01 03:09:03;;;;;;;4.83;3.00;;;13.40;99.90;;;;;;6046611;23;20607;-67
2021/10/01 03:11:30;;;;;;;2.43;1.57;;;13.40;99.90;;;;;;6050267;23;20636;-68
2021/10/01 03:14:01;;;;;;;2.03;1.83;;;13.40;99.90;;;;;;6039240;23;21118;-67
2021/10/01 03:16:27;;;;;;;6.00;1.87;;;13.30;99.90;;;;;;6032529;23;20589;-70
2021/10/01 03:18:56;;;;;;;3.40;1.70;;;13.30;99.90;;;;;;6030384;23;20569;-68
2021/10/01 03:21:24;;;;;;;2.73;1.93;;;13.40;99.90;;;;;;6029991;23;21106;-68
2021/10/01 03:23:52;;;;;;;1.70;1.60;;;13.30;99.90;;;;;;6033407;23;20537;-68
2021/10/01 03:26:19;;;;;;;2.43;1.80;;;13.40;99.90;;;;;;6029068;23;20607;-71
2021/10/01 03:28:47;;;;;;;6.07;1.90;;;13.40;99.90;;;;;;6032422;23;20541;-70
2021/10/01 03:31:15;;;;;;;3.03;2.10;;;13.10;99.90;;;;;;6030437;23;21071;-70
2021/10/01 03:33:44;;;;;;;2.70;1.70;;;13.10;99.90;;;;;;6032870;23;20595;-68
2021/10/01 03:36:10;;;;;;;5.70;2.13;;;13.20;99.90;;;;;;6030050;23;20659;-70
2021/10/01 03:38:38;;;;;;;2.30;1.70;;;13.20;99.90;;;;;;6032328;23;20533;-70
2021/10/01 03:41:06;;;;;;;4.00;1.50;;;13.20;99.90;;;;;;6032120;23;20255;-70
2021/10/01 03:43:32;;;;;;;4.50;1.70;;;13.10;99.90;;;;;;6007487;23;20560;-68
2021/10/01 03:45:57;;;;;;;2.10;1.90;;;13.10;99.90;;;;;;6031085;23;20736;-68
2021/10/01 03:48:26;;;;;;;2.50;1.80;;;13.10;99.90;;;;;;6031179;23;20188;-68
2021/10/01 03:50:52;;;;;;;2.87;1.90;;;13.00;99.90;;;;;;6032747;23;20184;-68
2021/10/01 03:53:17;;;;;;;4.17;1.67;;;13.10;99.90;;;;;;6031178;23;20533;-68
2021/10/01 03:55:43;;;;;;;5.40;2.20;;;13.00;99.90;;;;;;6031844;23;20696;-68
2021/10/01 03:58:09;;;;;;;3.20;2.47;;;13.00;99.90;;;;;;6032052;23;20160;-68
2021/10/01 04:00:40;;;;;;;2.27;1.80;;;13.00;99.90;;;;;;6032903;23;20191;-67
2021/10/01 04:03:06;;;;;;;2.00;1.53;;;13.00;99.90;;;;;;6031976;23;20148;-69
2021/10/01 04:05:31;;;;;;;1.80;1.70;;;13.00;99.90;;;;;;6030985;23;21185;-68
2021/10/01 04:07:57;;;;;;;2.40;1.80;;;12.90;99.90;;;;;;6031303;23;20292;-70
2021/10/01 04:10:22;;;;;;;1.93;1.70;;;12.90;99.90;;;;;;6031322;23;20181;-68
2021/10/01 04:12:50;;;;;;;4.60;1.83;;;12.90;99.90;;;;;;6031989;23;20199;-70
2021/10/01 04:15:18;;;;;;;3.13;1.70;;;12.80;99.90;;;;;;6032190;23;20161;-68
2021/10/01 04:17:44;;;;;;;3.43;1.90;;;12.70;99.90;;;;;;6030055;23;20895;-68
2021/10/01 04:20:10;;;;;;;2.17;1.73;;;12.90;99.90;;;;;;6030988;23;20898;-69
2021/10/01 04:22:35;;;;;;;5.57;2.60;;;12.80;99.90;;;;;;6032150;23;20186;-68
2021/10/01 04:25:03;;;;;;;2.70;2.00;;;12.80;99.90;;;;;;6031179;23;20584;-68
2021/10/01 04:27:29;;;;;;;1.90;1.80;;;12.70;99.90;;;;;;6028047;23;20243;-68
2021/10/01 04:29:54;;;;;;;2.30;1.70;;;12.70;99.90;;;;;;6031543;23;20572;-70
2021/10/01 04:32:22;;;;;;;3.93;1.67;;;12.50;99.90;;;;;;6032927;23;20184;-68
2021/10/01 04:34:59;;;;;;;2.87;1.60;;;12.50;99.90;;;;;;6036012;23;20231;-68
2021/10/01 04:37:27;;;;;;;3.27;1.70;;;12.50;99.90;;;;;;6031063;23;20991;-68
2021/10/01 04:39:53;;;;;;;4.30;1.97;;;12.60;99.90;;;;;;6008866;23;20609;-68
2021/10/01 04:42:22;;;;;;;2.40;1.80;;;12.50;99.90;;;;;;6033279;23;21067;-68
2021/10/01 04:44:48;;;;;;;4.73;2.10;;;12.50;99.90;;;;;;6031359;23;20662;-68
2021/10/01 04:47:13;;;;;;;2.23;1.70;;;12.50;99.90;;;;;;6029709;23;20597;-68
2021/10/01 04:49:39;;;;;;;3.87;1.63;;;12.50;99.90;;;;;;6030648;23;20184;-68
2021/10/01 04:52:05;;;;;;;2.27;1.90;;;12.60;99.90;;;;;;6031816;23;20509;-68
2021/10/01 04:54:33;;;;;;;4.73;2.00;;;12.60;99.90;;;;;;6003878;23;20296;-68
2021/10/01 04:56:59;;;;;;;2.67;1.70;;;12.50;99.90;;;;;;6031164;23;20204;-68
2021/10/01 04:59:29;;;;;;;3.40;1.93;;;12.50;99.90;;;;;;6032073;23;20568;-68
2021/10/01 05:02:00;;;;;;;3.73;1.70;;;12.50;99.90;;;;;;6031384;23;20649;-69
2021/10/01 05:04:25;;;;;;;2.40;1.80;;;12.50;99.90;;;;;;6027673;23;21154;-68
2021/10/01 05:06:51;;;;;;;2.50;2.30;;;12.40;99.90;;;;;;6026717;23;20632;-68
2021/10/01 05:09:16;;;;;;;2.30;2.10;;;12.50;99.90;;;;;;6029410;23;20184;-68
2021/10/01 05:11:45;;;;;;;3.43;2.37;;;12.60;99.90;;;;;;6022533;23;20702;-68
2021/10/01 05:14:10;;;;;;;5.47;2.07;;;12.60;99.90;;;;;;6018868;23;20161;-68
2021/10/01 05:16:36;;;;;;;6.30;2.40;;;12.60;99.90;;;;;;6021032;23;20607;-68
2021/10/01 05:19:02;;;;;;;2.87;2.20;;;12.60;99.90;;;;;;5999085;23;20225;-68
2021/10/01 05:21:27;;;;;;;4.10;2.30;;;12.50;99.90;;;;;;6031044;23;20474;-67
2021/10/01 05:23:53;;;;;;;5.60;2.00;;;12.60;99.90;;;;;;6033359;23;20294;-68
2021/10/01 05:26:18;;;;;;;2.40;1.80;;;12.60;99.90;;;;;;6025769;23;20709;-68
2021/10/01 05:28:44;;;;;;;4.87;1.93;;;12.60;99.90;;;;;;5998358;23;20615;-68
2021/10/01 05:31:10;;;;;;;2.70;1.90;;;12.60;99.90;;;;;;6022204;23;20195;-67
2021/10/01 05:33:35;;;;;;;2.60;1.60;;;12.60;99.90;;;;;;6025547;23;20171;-68
2021/10/01 05:36:01;;;;;;;2.37;2.00;;;12.60;99.90;;;;;;5997582;23;20667;-70
2021/10/01 05:38:29;;;;;;;2.83;2.27;;;12.60;99.90;;;;;;6025595;23;20164;-70
2021/10/01 05:40:55;;;;;;;3.43;1.60;;;12.50;99.90;;;;;;6027509;23;20191;-70
2021/10/01 05:43:24;;;;;;;3.53;2.00;;;12.60;99.90;;;;;;6029685;23;20540;-68
2021/10/01 05:45:53;;;;;;;3.07;1.70;;;12.60;99.90;;;;;;6005439;23;20764;-67
2021/10/01 05:48:20;;;;;;;1.90;1.70;;;12.60;99.90;;;;;;6039771;23;20541;-67
2021/10/01 05:50:52;;;;;;;2.40;1.83;;;12.60;99.90;;;;;;6024655;23;20699;-68
2021/10/01 05:56:03;;;;;;;2.40;1.70;;;12.60;99.90;;;;;;6030399;23;21157;-68
2021/10/01 05:58:29;;;;;;;2.70;1.63;;;12.60;99.90;;;;;;6027827;23;21086;-67
2021/10/01 06:00:57;;;;;;;5.33;1.87;;;12.50;99.90;;;;;;6032952;23;20683;-67
2021/10/01 06:03:23;;;;;;;4.10;1.43;;;12.60;99.90;;;;;;6028177;23;20165;-68
2021/10/01 06:05:48;;;;;;;2.63;1.80;;;12.60;99.90;;;;;;6021169;23;20623;-68
2021/10/01 06:08:16;;;;;;;3.10;1.80;;;12.60;99.90;;;;;;6028810;23;20544;-67
2021/10/01 06:10:42;;;;;;;2.57;2.10;;;12.60;99.90;;;;;;6034107;23;20195;-68
2021/10/01 06:13:07;;;;;;;3.27;1.57;;;12.60;99.90;;;;;;6033774;23;20545;-70
2021/10/01 06:15:33;;;;;;;3.83;1.90;;;12.60;99.90;;;;;;6038467;23;20160;-69
2021/10/01 06:17:58;;;;;;;2.83;2.23;;;12.60;99.90;;;;;;6013742;23;20539;-69
2021/10/01 06:20:24;;;;;;;3.03;1.77;;;12.60;99.90;;;;;;6006767;23;20192;-69
2021/10/01 06:22:50;;;;;;;3.63;1.60;;;12.60;99.90;;;;;;6030631;23;20251;-68
2021/10/01 06:25:15;;;;;;;4.03;2.00;;;12.50;99.90;;;;;;6031921;23;20593;-69
2021/10/01 06:27:41;;;;;;;3.70;1.97;;;12.50;99.90;;;;;;6003853;23;20200;-68
2021/10/01 06:30:09;;;;;;;2.20;1.87;;;12.40;99.90;;;;;;6027034;23;20635;-68
2021/10/01 06:32:38;;;;;;;3.77;1.53;;;12.50;99.90;;;;;;6031156;23;20905;-68
2021/10/01 06:35:05;;;;;;;2.93;2.23;;;12.50;99.90;;;;;;6032435;23;21046;-68
2021/10/01 06:37:31;;;;;;;3.37;2.00;;;12.60;99.90;;;;;;6031704;23;20974;-68
2021/10/01 06:39:57;;;;;;;4.70;2.10;;;12.50;99.90;;;;;;6033361;23;21088;-68
2021/10/01 06:42:23;;;;;;;3.10;1.90;;;12.50;99.90;;;;;;6032799;23;20961;-68
2021/10/01 06:44:51;;;;;;;3.63;2.07;;;12.60;99.90;;;;;;6031168;23;20242;-68
2021/10/01 06:47:22;;;;;;;2.23;2.03;;;12.50;99.90;;;;;;6032814;23;20588;-69
2021/10/01 06:53:13;;;;;;;3.63;1.93;;;12.50;99.90;;;;;;6010193;23;20621;-68
2021/10/01 08:20:48;;;;;;;2.33;1.77;;;13.60;99.90;;;;;;6030976;23;20624;-68
2021/10/01 08:23:14;;;;;;;4.40;1.87;;;13.60;99.90;;;;;;6032669;23;20572;-68
2021/10/01 08:25:40;;;;;;;3.23;1.57;;;13.60;99.90;;;;;;6031918;23;20691;-68
2021/10/01 08:28:06;;;;;;;3.60;1.73;;;13.60;99.90;;;;;;6031203;23;20942;-68
2021/10/01 08:30:33;;;;;;;3.73;1.90;;;13.70;99.90;;;;;;6006678;23;20611;-68
2021/10/01 08:32:59;;;;;;;2.77;2.00;;;13.80;99.90;;;;;;6031579;23;20541;-68
2021/10/01 08:35:25;;;;;;;4.90;2.53;;;13.90;99.90;;;;;;6050416;23;20701;-68
2021/10/01 08:37:55;;;;;;;1.73;1.63;;;13.90;99.90;;;;;;6048336;23;20184;-68
2021/10/01 08:40:22;;;;;;;3.40;1.60;;;14.00;99.90;;;;;;6033970;23;20557;-68
2021/10/01 08:42:52;;;;;;;3.30;1.77;;;14.00;99.90;;;;;;6031926;23;20937;-68
2021/10/01 08:45:20;;;;;;;3.17;1.73;;;14.00;99.90;;;;;;6034272;23;20553;-68
2021/10/01 08:47:49;;;;;;;2.27;1.40;;;14.10;99.90;;;;;;6032026;23;20595;-68
2021/10/01 08:50:19;;;;;;;2.17;1.73;;;14.20;99.90;;;;;;6032854;23;20600;-68
2021/10/01 08:52:45;;;;;;;3.50;1.60;;;14.30;99.90;;;;;;6030744;23;20528;-68
2021/10/01 08:55:11;;;;;;;2.40;1.70;;;14.30;99.90;;;;;;6031913;23;20561;-68
2021/10/01 08:57:37;;;;;;;3.13;1.70;;;14.30;99.90;;;;;;6032301;23;20623;-68
2021/10/01 09:00:07;;;;;;;3.20;1.70;;;14.30;99.90;;;;;;6031213;23;20949;-68
2021/10/01 09:02:32;;;;;;;4.07;1.50;;;14.40;99.90;;;;;;6030830;23;20617;-68
2021/10/01 09:04:58;;;;;;;3.00;1.60;;;14.40;99.90;;;;;;6029723;23;20545;-68
2021/10/01 09:07:25;;;;;;;2.00;1.60;;;14.50;99.90;;;;;;6032923;23;20287;-68
2021/10/01 09:09:52;;;;;;;4.40;1.90;;;14.60;99.90;;;;;;6031151;23;20187;-68
2021/10/01 09:12:19;;;;;;;2.97;2.07;;;14.60;99.90;;;;;;6032749;23;20537;-68
2021/10/01 09:14:56;;;;;;;2.80;1.90;;;14.70;99.90;;;;;;6031457;23;20551;-68
2021/10/01 09:17:27;;;;;;;5.87;1.80;;;14.70;99.90;;;;;;6031403;23;20592;-68
2021/10/01 09:19:55;;;;;;;2.90;1.70;;;14.80;99.90;;;;;;6033066;23;20577;-68
2021/10/01 09:22:32;;;;;;;4.50;1.97;;;14.90;99.90;;;;;;6031852;23;20540;-68
2021/10/01 09:25:18;;;;;;;3.33;2.03;;;15.00;99.90;;;;;;6032236;23;20509;-68
2021/10/01 09:27:46;;;;;;;2.73;1.87;;;15.10;99.90;;;;;;6031211;23;20647;-68
2021/10/01 09:30:14;;;;;;;6.00;2.57;;;15.20;99.90;;;;;;6032560;23;20915;-68
2021/10/01 09:32:41;;;;;;;4.60;1.77;;;15.20;99.90;;;;;;6037391;23;21087;-68
2021/10/01 09:35:14;;;;;;;4.23;1.50;;;15.30;99.90;;;;;;6038669;23;20624;-68
2021/10/01 09:37:40;;;;;;;5.23;1.20;;;15.30;99.90;;;;;;6033008;23;20688;-68
2021/10/01 09:40:07;;;;;;;2.73;1.57;;;15.40;99.90;;;;;;6028678;23;20588;-70
2021/10/01 09:42:45;;;;;;;2.30;1.43;;;15.50;99.90;;;;;;6030589;23;20922;-68
2021/10/01 09:45:12;;;;;;;2.50;1.60;;;15.60;99.90;;;;;;6033464;23;20548;-68
2021/10/01 09:47:43;;;;;;;4.60;1.50;;;15.70;99.90;;;;;;6030662;23;20599;-68
2021/10/01 09:50:27;;;;;;;1.30;1.20;;;15.70;99.90;;;;;;6031882;23;21164;-68
2021/10/01 09:53:03;;;;;;;4.00;1.53;;;15.80;99.90;;;;;;6031682;23;20855;-68
2021/10/01 09:55:30;;;;;;;1.90;1.30;;;15.90;99.90;;;;;;6031499;23;20508;-72
2021/10/01 09:58:11;;;;;;;2.50;1.70;;;16.00;99.90;;;;;;6029668;23;21110;-68
2021/10/01 10:00:53;;;;;;;3.63;1.70;;;16.10;99.90;;;;;;6030888;23;20588;-68
2021/10/01 10:03:22;;;;;;;2.27;1.20;;;16.10;99.90;;;;;;6031474;23;20557;-68
2021/10/01 10:06:10;;;;;;;4.40;1.40;;;16.20;99.90;;;;;;6030164;23;20600;-72
2021/10/01 10:08:41;;;;;;;4.63;2.17;;;16.30;99.90;;;;;;6030291;23;20620;-69
2021/10/01 10:11:10;;;;;;;4.10;1.30;;;16.40;99.90;;;;;;6005677;23;20600;-69
2021/10/01 10:13:50;;;;;;;4.33;1.70;;;16.50;99.90;;;;;;6030330;23;20589;-68
2021/10/01 10:16:17;;;;;;;1.60;1.50;;;16.60;99.90;;;;;;6031788;23;21144;-68
2021/10/01 10:18:47;;;;;;;1.97;1.60;;;16.60;99.90;;;;;;6031812;23;20585;-68
2021/10/01 10:21:14;;;;;;;2.90;1.40;;;16.70;99.90;;;;;;6049791;23;20597;-69
2021/10/01 10:23:40;;;;;;;3.50;1.37;;;16.80;99.90;;;;;;6052217;23;20579;-68
2021/10/01 10:26:08;;;;;;;2.70;1.37;;;16.90;99.90;;;;;;6052671;23;20679;-68
2021/10/01 10:28:38;;;;;;;2.73;1.70;;;17.00;99.90;;;;;;6040270;23;20171;-70
2021/10/01 10:31:04;;;;;;;4.43;1.70;;;17.10;99.90;;;;;;6037412;23;20585;-68
2021/10/01 10:33:43;;;;;;;1.93;1.43;;;17.20;99.90;;;;;;6033903;23;20608;-68
2021/10/01 10:36:44;;;;;;;5.97;1.80;;;17.30;99.90;;;;;;6030729;23;20684;-69
2021/10/01 10:39:15;;;;;;;1.80;1.30;;;17.40;99.90;;;;;;6018544;23;20954;-68
2021/10/01 10:42:00;;;;;;;1.57;1.30;;;17.50;99.90;;;;;;6032778;23;20536;-68
2021/10/01 10:44:43;;;;;;;3.60;1.43;;;17.60;99.90;;;;;;6031754;23;20555;-68
2021/10/01 10:47:10;;;;;;;3.13;1.33;;;17.70;99.90;;;;;;6030120;23;20958;-68
2021/10/01 10:49:36;;;;;;;6.17;1.73;;;17.70;99.90;;;;;;6034763;23;20564;-68
2021/10/01 10:52:17;;;;;;;2.23;1.10;;;17.70;99.90;;;;;;6033992;23;20561;-68
2021/10/01 10:54:48;;;;;;;4.40;1.43;;;17.80;99.90;;;;;;6033652;23;20618;-68
2021/10/01 10:57:17;;;;;;;2.00;1.53;;;17.80;99.90;;;;;;6034431;23;20623;-68
2021/10/01 10:59:50;;;;;;;2.47;1.40;;;17.70;99.90;;;;;;6033315;23;20568;-68
2021/10/01 11:05:20;;;;;;;2.30;1.37;;;17.90;99.90;;;;;;6041976;23;21042;-68
2021/10/01 11:07:52;;;;;;;3.63;1.57;;;17.90;99.90;;;;;;6025572;23;20584;-68
2021/10/01 11:10:42;;;;;;;2.70;1.40;;;18.00;99.90;;;;;;6031983;23;20567;-68
2021/10/01 11:13:22;;;;;;;2.70;1.30;;;18.10;99.90;;;;;;6032663;23;20546;-68
2021/10/01 11:16:07;;;;;;;3.33;1.40;;;18.10;99.90;;;;;;6030415;23;20663;-68
2021/10/01 11:18:33;;;;;;;3.27;1.80;;;18.00;99.90;;;;;;6031688;23;20528;-68
2021/10/01 11:20:59;;;;;;;1.80;1.40;;;18.20;99.90;;;;;;6029565;23;21193;-68
2021/10/01 11:23:27;;;;;;;3.53;1.50;;;18.30;99.90;;;;;;6006920;23;20560;-68
2021/10/01 11:25:53;;;;;;;2.30;1.60;;;18.30;99.90;;;;;;6032883;23;20608;-68
2021/10/01 11:28:31;;;;;;;2.63;1.40;;;18.50;99.90;;;;;;6047654;23;20601;-68
2021/10/01 11:30:57;;;;;;;3.53;1.53;;;18.70;99.90;;;;;;6047479;23;20592;-68
2021/10/01 11:33:23;;;;;;;3.23;1.20;;;18.80;99.90;;;;;;6037163;23;20556;-68
2021/10/01 11:35:56;;;;;;;3.83;1.43;;;18.80;99.90;;;;;;6035279;23;20729;-68
2021/10/01 11:38:25;;;;;;;4.63;1.80;;;18.90;99.90;;;;;;6011579;23;20167;-68
2021/10/01 11:41:03;;;;;;;1.40;1.30;;;18.90;99.90;;;;;;6029722;23;20592;-68
2021/10/01 11:43:29;;;;;;;2.53;1.13;;;18.90;99.90;;;;;;6028750;23;20517;-68
2021/10/01 11:45:55;;;;;;;2.50;1.50;;;18.90;99.90;;;;;;6005618;23;20608;-68
2021/10/01 11:48:21;;;;;;;1.70;1.30;;;19.00;99.90;;;;;;6028715;23;20160;-68
2021/10/01 11:50:50;;;;;;;3.27;1.53;;;19.20;99.90;;;;;;6030069;23;20651;-72
2021/10/01 11:53:35;;;;;;;1.80;1.23;;;19.50;99.90;;;;;;6027818;23;20167;-67
2021/10/01 11:56:03;;;;;;;3.50;1.33;;;19.70;99.90;;;;;;6003219;23;21165;-67
2021/10/01 11:58:33;;;;;;;3.07;2.13;;;19.70;99.90;;;;;;6028787;23;20545;-69
2021/10/01 12:01:18;;;;;;;1.90;1.40;;;19.80;99.90;;;;;;6029686;23;20596;-69
2021/10/01 12:03:52;;;;;;;1.97;1.40;;;20.10;99.90;;;;;;6030125;23;20607;-68
2021/10/01 12:06:25;;;;;;;2.70;1.80;;;20.40;99.90;;;;;;6029437;23;20612;-69
2021/10/01 12:09:18;;;;;;;2.00;1.33;;;20.70;99.90;;;;;;6032748;23;20560;-69
2021/10/01 12:11:44;;;;;;;3.07;1.53;;;21.00;99.90;;;;;;6026154;23;20645;-69
2021/10/01 12:14:14;;;;;;;3.60;1.20;;;21.40;99.90;;;;;;6031347;23;21242;-69
2021/10/01 12:16:41;;;;;;;3.40;1.57;;;21.60;99.90;;;;;;6029421;23;20208;-67
2021/10/01 12:19:08;;;;;;;1.60;1.30;;;21.70;99.90;;;;;;6029196;23;20557;-69
2021/10/01 12:21:35;;;;;;;2.37;1.33;;;22.00;99.90;;;;;;6028542;23;20545;-69
2021/10/01 12:24:06;;;;;;;4.23;1.53;;;22.40;99.90;;;;;;6038184;23;20541;-68
2021/10/01 12:26:34;;;;;;;2.77;1.50;;;23.20;99.90;;;;;;6027085;23;20659;-69
2021/10/01 12:29:10;;;;;;;4.33;1.60;;;23.80;99.90;;;;;;6026747;23;20592;-69
2021/10/01 12:31:41;;;;;;;5.90;1.40;;;24.40;99.90;;;;;;6026619;23;20510;-69
2021/10/01 12:34:13;;;;;;;4.00;1.70;;;25.40;99.90;;;;;;6027884;23;20722;-69
2021/10/01 12:36:41;;;;;;;2.87;1.47;;;26.80;99.90;;;;;;6029446;23;20971;-69
2021/10/01 12:39:07;;;;;;;1.87;1.30;;;28.10;99.90;;;;;;6030667;23;20568;-69
2021/10/01 12:41:35;;;;;;;1.70;1.33;;;29.30;95.30;;;;;;6030528;23;20631;-69
2021/10/01 12:44:03;;;;;;;3.40;1.80;;;30.20;91.90;;;;;;6027025;23;20191;-69
2021/10/01 12:46:51;;;;;;;1.90;1.37;;;31.00;86.10;;;;;;6023117;23;20656;-69
2021/10/01 12:49:18;;;;;;;3.73;1.50;;;31.00;81.40;;;;;;6026712;23;21292;-69
2021/10/01 12:52:04;;;;;;;2.83;1.37;;;30.20;78.80;;;;;;6026731;23;20591;-69
2021/10/01 12:54:34;;;;;;;3.63;1.77;;;29.20;80.40;;;;;;6028861;23;20571;-70
2021/10/01 12:57:14;;;;;;;2.60;1.43;;;28.70;83.30;;;;;;6006271;23;20711;-70
2021/10/01 12:59:58;;;;;;;2.10;1.40;;;29.30;82.10;;;;;;6030922;23;20577;-70
2021/10/01 13:02:40;;;;;;;4.00;2.80;;;30.50;80.40;;;;;;6028689;23;20635;-70
2021/10/01 13:05:14;;;;;;;1.67;1.20;;;31.20;79.30;;;;;;6028206;23;20498;-69
2021/10/01 13:07:42;;;;;;;1.10;1.10;;;30.30;73.90;;;;;;6028809;23;21158;-68
2021/10/01 13:10:26;;;;;;;2.93;1.20;;;29.20;76.10;;;;;;6030417;23;20584;-68
2021/10/01 13:13:09;;;;;;;1.97;1.30;;;28.40;78.90;;;;;;6029617;23;21065;-69
2021/10/01 13:15:40;;;;;;;3.13;1.37;;;27.60;80.60;;;;;;6027445;23;21141;-71
2021/10/01 13:18:08;;;;;;;3.60;1.60;;;27.70;80.50;;;;;;6028915;23;20549;-69
2021/10/01 13:20:40;;;;;;;1.13;1.03;;;28.00;81.30;;;;;;6027713;23;20947;-70
2021/10/01 13:23:11;;;;;;;2.30;1.37;;;28.30;78.90;;;;;;6029672;23;20561;-71
2021/10/01 13:26:04;;;;;;;2.50;1.30;;;28.40;79.60;;;;;;6025278;23;20582;-67
2021/10/01 13:28:31;;;;;;;1.70;1.10;;;28.60;77.40;;;;;;6025227;23;20581;-68
2021/10/01 13:30:57;;;;;;;82.37;78.63;;;28.10;78.10;;;;;;6026112;23;20640;-68
2021/10/01 13:33:25;;;;;;;3.50;1.20;;;27.60;78.40;;;;;;6028434;23;20584;-68
2021/10/01 13:35:56;;;;;;;2.50;1.10;;;27.10;80.60;;;;;;6028259;23;20691;-68
2021/10/01 13:38:33;;;;;;;6.37;5.97;;;26.20;80.80;;;;;;6029424;23;20548;-69
2021/10/01 13:41:01;;;;;;;30.63;29.27;;;25.30;83.30;;;;;;6029381;23;20652;-68
2021/10/01 13:43:27;;;;;;;45.40;43.60;;;24.60;86.40;;;;;;6026606;23;20902;-69
2021/10/01 13:45:53;;;;;;;628.93;602.53;;;24.00;87.60;;;;;;6027320;23;20723;-67
2021/10/01 13:48:19;;;;;;;699.13;660.30;;;23.40;89.70;;;;;;6027000;23;20537;-68
2021/10/01 13:50:45;;;;;;;999.58;941.67;;;22.80;91.20;;;;;;6025963;23;24371;-70
2021/10/01 13:53:11;;;;;;;728.70;680.40;;;22.40;91.90;;;;;;6027819;23;20160;-70
2021/10/01 13:55:36;;;;;;;958.72;902.72;;;22.10;93.00;;;;;;6002536;23;24759;-69
2021/10/01 13:58:04;;;;;;;668.37;620.50;;;21.80;93.80;;;;;;6030713;23;20191;-69
2021/10/01 14:00:30;;;;;;;929.17;873.95;;;21.60;95.30;;;;;;6005049;23;24379;-69
2021/10/01 14:02:56;;;;;;;657.47;609.73;;;21.40;95.90;;;;;;6031070;23;20183;-70
2021/10/01 14:05:22;;;;;;;912.50;858.55;;;21.30;96.80;;;;;;6028481;23;24897;-69
2021/10/01 14:07:47;;;;;;;589.47;542.97;;;21.30;97.60;;;;;;6028353;23;20148;-70
2021/10/01 14:10:18;;;;;;;904.40;850.60;;;21.30;97.60;;;;;;6026668;23;24363;-70
2021/10/01 14:12:47;;;;;;;619.73;572.37;;;20.90;97.50;;;;;;6029809;23;20851;-70
2021/10/01 14:15:12;;;;;;;871.58;819.28;;;21.00;97.90;;;;;;6029567;23;24359;-70
2021/10/01 14:17:39;;;;;;;574.00;528.70;;;21.00;97.80;;;;;;6031454;23;20202;-70
2021/10/01 14:20:05;;;;;;;887.90;834.80;;;20.80;98.50;;;;;;6043583;23;24623;-69
2021/10/01 14:22:31;;;;;;;553.90;508.37;;;20.70;99.40;;;;;;6046210;23;20166;-70
2021/10/01 14:24:57;;;;;;;888.40;835.60;;;20.50;99.70;;;;;;6026658;23;24395;-70
2021/10/01 14:27:22;;;;;;;576.27;530.17;;;20.30;99.90;;;;;;6031016;23;20225;-70
2021/10/01 14:29:48;;;;;;;881.13;828.30;;;20.30;99.90;;;;;;6025117;23;24426;-69
2021/10/01 14:32:13;;;;;;;586.90;540.43;;;20.30;99.90;;;;;;6028094;23;20669;-69
2021/10/01 14:34:39;;;;;;;884.83;832.03;;;20.20;99.90;;;;;;6027436;23;24969;-70
2021/10/01 14:37:05;;;;;;;593.73;547.13;;;20.20;99.90;;;;;;6029586;23;20596;-69